createdAt,value
2023-04-25T00:02:11.043Z,3.10
2023-04-25T00:04:38.989Z,3.40
2023-04-25T00:07:06.313Z,3.30
2023-04-25T00:09:33.147Z,3.27
2023-04-25T00:11:59.825Z,3.53
2023-04-25T00:14:26.643Z,3.20
2023-04-25T00:16:53.341Z,3.33
2023-04-25T00:19:20.034Z,2.73
2023-04-25T00:21:47.077Z,3.23
2023-04-25T00:24:13.797Z,3.30
2023-04-25T00:26:40.560Z,3.00
2023-04-25T00:29:07.194Z,3.13
2023-04-25T00:31:33.927Z,3.47
2023-04-25T00:34:00.774Z,3.10
2023-04-25T00:36:28.583Z,3.03
2023-04-25T00:38:58.208Z,3.57
2023-04-25T00:41:26.107Z,2.93
2023-04-25T00:43:53.181Z,2.83
2023-04-25T00:46:20.088Z,3.50
2023-04-25T00:48:46.816Z,2.73
2023-04-25T00:51:16.673Z,3.00
2023-04-25T00:53:43.419Z,2.70
2023-04-25T00:56:10.716Z,2.80
2023-04-25T00:58:38.245Z,2.80
2023-04-25T01:01:05.126Z,3.07
2023-04-25T01:03:33.658Z,3.00
2023-04-25T01:06:00.656Z,3.20
2023-04-25T01:08:27.389Z,2.77
2023-04-25T01:10:54.148Z,2.67
2023-04-25T01:13:20.972Z,2.33
2023-04-25T01:15:47.958Z,2.47
2023-04-25T01:18:15.030Z,2.40
2023-04-25T01:20:42.695Z,2.93
2023-04-25T01:23:09.851Z,2.53
2023-04-25T01:25:37.637Z,3.20
2023-04-25T01:28:04.358Z,2.60
2023-04-25T01:30:32.305Z,2.47
2023-04-25T01:33:00.023Z,2.43
2023-04-25T01:35:29.106Z,2.80
2023-04-25T01:37:55.849Z,2.83
2023-04-25T01:40:23.627Z,2.70
2023-04-25T01:42:51.610Z,2.80
2023-04-25T01:45:20.034Z,2.60
2023-04-25T01:47:50.084Z,2.80
2023-04-25T01:50:17.884Z,2.70
2023-04-25T01:52:44.722Z,2.70
2023-04-25T01:55:12.250Z,3.00
2023-04-25T01:57:43.990Z,2.80
2023-04-25T02:00:11.583Z,2.87
2023-04-25T02:02:41.509Z,2.80
2023-04-25T02:05:41.243Z,2.70
2023-04-25T02:08:10.731Z,2.83
2023-04-25T02:10:37.708Z,2.57
2023-04-25T02:13:13.318Z,2.60
2023-04-25T02:15:52.178Z,2.87
2023-04-25T02:18:22.226Z,2.53
2023-04-25T02:20:48.998Z,3.03
2023-04-25T02:23:16.449Z,2.97
2023-04-25T02:25:43.194Z,2.60
2023-04-25T02:28:09.984Z,3.00
2023-04-25T02:30:37.006Z,2.80
2023-04-25T02:33:05.809Z,3.07
2023-04-25T02:35:32.677Z,2.97
2023-04-25T02:37:59.397Z,3.10
2023-04-25T02:40:26.101Z,3.07
2023-04-25T02:42:54.619Z,3.23
2023-04-25T02:45:21.930Z,3.80
2023-04-25T02:47:48.659Z,3.60
2023-04-25T02:50:15.398Z,3.70
2023-04-25T02:52:42.084Z,3.50
2023-04-25T02:55:14.402Z,3.60
2023-04-25T02:57:41.272Z,3.43
2023-04-25T03:00:12.673Z,3.90
2023-04-25T03:02:39.412Z,3.80
2023-04-25T03:05:06.810Z,4.17
2023-04-25T03:07:33.499Z,3.90
2023-04-25T03:10:00.616Z,4.13
2023-04-25T03:12:27.496Z,3.70
2023-04-25T03:14:54.168Z,4.30
2023-04-25T03:17:21.099Z,4.13
2023-04-25T03:19:49.825Z,4.70
2023-04-25T03:22:16.606Z,4.73
2023-04-25T03:24:43.315Z,4.80
2023-04-25T03:27:10.175Z,4.10
2023-04-25T03:29:37.143Z,4.13
2023-04-25T03:32:05.004Z,4.70
2023-04-25T03:34:31.805Z,4.47
2023-04-25T03:36:58.509Z,4.57
2023-04-25T03:39:25.547Z,4.47
2023-04-25T03:41:53.142Z,4.77
2023-04-25T03:44:20.819Z,4.80
2023-04-25T03:46:47.968Z,4.63
2023-04-25T03:49:17.024Z,4.20
2023-04-25T03:52:14.900Z,5.00
2023-04-25T03:54:41.834Z,4.77
2023-04-25T03:57:11.696Z,5.00
2023-04-25T03:59:39.906Z,4.83
2023-04-25T04:02:08.776Z,4.67
2023-04-25T04:04:37.493Z,4.70
2023-04-25T04:07:04.522Z,4.50
2023-04-25T04:09:35.333Z,5.10
2023-04-25T04:12:06.982Z,5.13
2023-04-25T04:14:34.348Z,4.50
2023-04-25T04:17:01.068Z,4.90
2023-04-25T04:19:28.940Z,4.90
2023-04-25T04:22:04.613Z,4.70
2023-04-25T04:24:31.660Z,5.00
2023-04-25T04:27:02.650Z,4.80
2023-04-25T04:30:08.043Z,4.80
2023-04-25T04:32:39.145Z,4.90
2023-04-25T04:35:07.024Z,4.73
2023-04-25T04:37:34.482Z,4.73
2023-04-25T04:40:06.831Z,5.57
2023-04-25T04:42:46.433Z,4.60
2023-04-25T04:45:26.127Z,4.47
2023-04-25T04:48:25.177Z,5.00
2023-04-25T04:51:15.145Z,5.00
2023-04-25T04:54:11.153Z,4.77
2023-04-25T04:56:57.024Z,4.90
2023-04-25T04:59:29.985Z,5.40
2023-04-25T05:02:21.441Z,5.17
2023-04-25T05:04:57.823Z,4.90
2023-04-25T05:07:34.673Z,4.90
2023-04-25T05:10:09.312Z,5.07
2023-04-25T05:12:37.210Z,5.33
2023-04-25T05:15:22.613Z,5.50
2023-04-25T05:17:59.006Z,4.70
2023-04-25T05:20:25.711Z,5.20
2023-04-25T05:23:16.443Z,5.13
2023-04-25T05:26:03.534Z,4.90
2023-04-25T05:28:43.462Z,4.87
2023-04-25T05:31:28.644Z,5.00
2023-04-25T05:34:01.023Z,4.80
2023-04-25T05:36:39.282Z,5.00
2023-04-25T05:39:07.157Z,4.83
2023-04-25T05:41:52.219Z,4.50
2023-04-25T05:44:50.915Z,4.20
2023-04-25T05:47:24.852Z,4.37
2023-04-25T05:50:20.582Z,5.20
2023-04-25T05:53:10.269Z,4.70
2023-04-25T05:55:40.499Z,4.53
2023-04-25T05:58:21.566Z,4.57
2023-04-25T06:00:48.329Z,4.80
2023-04-25T06:03:19.536Z,4.73
2023-04-25T06:05:47.441Z,4.33
2023-04-25T06:08:14.301Z,4.60
2023-04-25T06:10:41.096Z,4.67
2023-04-25T06:13:07.787Z,4.83
2023-04-25T06:15:36.231Z,4.60
2023-04-25T06:18:03.074Z,5.03
2023-04-25T06:20:29.909Z,5.17
2023-04-25T06:22:59.023Z,5.13
2023-04-25T06:25:46.007Z,5.37
2023-04-25T06:28:12.906Z,5.33
2023-04-25T06:30:40.156Z,5.57
2023-04-25T06:33:11.522Z,5.47
2023-04-25T06:35:39.527Z,5.37
2023-04-25T06:38:08.066Z,5.37
2023-04-25T06:40:36.433Z,6.30
2023-04-25T06:43:03.694Z,6.27
2023-04-25T06:45:57.156Z,5.90
2023-04-25T06:48:26.293Z,5.23
2023-04-25T06:50:53.545Z,6.10
2023-04-25T06:53:20.544Z,5.70
2023-04-25T06:55:52.429Z,5.70
2023-04-25T06:58:21.928Z,5.90
2023-04-25T07:00:51.384Z,6.00
2023-04-25T07:03:21.353Z,6.03
2023-04-25T07:05:48.579Z,6.20
2023-04-25T07:08:15.347Z,6.07
2023-04-25T07:10:42.221Z,6.00
2023-04-25T07:13:08.970Z,5.73
2023-04-25T07:15:35.648Z,6.07
2023-04-25T07:18:02.790Z,5.83
2023-04-25T07:20:29.488Z,5.80
2023-04-25T07:22:56.924Z,6.40
2023-04-25T07:25:24.162Z,5.43
2023-04-25T07:27:51.045Z,4.63
2023-04-25T08:52:54.118Z,3.30
2023-04-25T08:55:22.155Z,3.37
2023-04-25T08:57:53.425Z,3.93
2023-04-25T09:00:20.216Z,3.70
2023-04-25T09:02:48.200Z,4.07
2023-04-25T09:05:15.423Z,4.00
2023-04-25T09:07:42.969Z,3.40
2023-04-25T09:10:10.039Z,4.30
2023-04-25T09:12:38.549Z,4.27
2023-04-25T09:15:09.139Z,4.67
2023-04-25T09:17:58.093Z,4.07
2023-04-25T09:20:29.423Z,4.70
2023-04-25T09:23:05.192Z,4.83
2023-04-25T09:25:39.869Z,5.03
2023-04-25T09:28:08.284Z,4.67
2023-04-25T09:30:36.463Z,4.73
2023-04-25T09:33:11.885Z,4.37
2023-04-25T09:35:44.901Z,4.50
2023-04-25T09:38:19.413Z,4.67
2023-04-25T09:41:10.210Z,4.40
2023-04-25T09:43:46.019Z,4.63
2023-04-25T09:46:12.958Z,4.40
2023-04-25T09:48:48.942Z,4.47
2023-04-25T09:51:16.024Z,4.27
2023-04-25T09:53:47.139Z,4.40
2023-04-25T09:56:53.452Z,3.63
2023-04-25T09:59:22.239Z,3.20
2023-04-25T10:01:49.745Z,3.37
2023-04-25T10:04:27.114Z,3.80
2023-04-25T10:07:06.833Z,4.40
2023-04-25T10:09:36.849Z,4.33
2023-04-25T10:12:04.287Z,4.60
2023-04-25T10:14:32.482Z,4.10
2023-04-25T10:16:59.782Z,4.07
2023-04-25T10:19:27.364Z,3.87
2023-04-25T10:22:08.692Z,4.53
2023-04-25T10:24:39.403Z,4.30
2023-04-25T10:27:06.559Z,4.20
2023-04-25T10:29:33.211Z,4.23
2023-04-25T10:31:59.937Z,3.83
2023-04-25T10:34:40.890Z,2.80
2023-04-25T10:37:09.583Z,2.63
2023-04-25T10:39:36.302Z,2.70
2023-04-25T10:42:03.661Z,2.30
2023-04-25T10:44:31.116Z,2.93
2023-04-25T10:47:01.621Z,2.97
2023-04-25T10:49:32.810Z,2.60
2023-04-25T10:52:12.392Z,2.43
2023-04-25T10:54:48.713Z,2.47
2023-04-25T10:57:27.182Z,2.10
2023-04-25T10:59:53.902Z,1.80
2023-04-25T11:02:20.956Z,1.80
2023-04-25T11:04:48.413Z,2.20
2023-04-25T11:07:24.726Z,1.70
2023-04-25T11:09:51.439Z,1.63
2023-04-25T11:12:18.620Z,1.73
2023-04-25T11:14:45.370Z,1.67
2023-04-25T11:17:12.371Z,1.93
2023-04-25T11:19:39.282Z,1.60
2023-04-25T11:22:06.940Z,1.97
2023-04-25T11:24:37.882Z,1.80
2023-04-25T11:27:05.288Z,1.60
2023-04-25T11:29:32.577Z,1.97
2023-04-25T11:31:59.572Z,1.33
2023-04-25T11:34:26.900Z,1.50
2023-04-25T11:36:54.090Z,1.30
2023-04-25T11:39:21.169Z,1.50
2023-04-25T11:41:48.166Z,1.40
2023-04-25T11:44:18.154Z,1.40
2023-04-25T11:46:45.597Z,1.50
2023-04-25T11:49:12.576Z,1.50
2023-04-25T11:51:44.094Z,1.10
2023-04-25T11:54:11.256Z,1.30
2023-04-25T11:56:38.181Z,1.60
2023-04-25T11:59:06.525Z,1.30
2023-04-25T12:01:36.148Z,1.37
2023-04-25T12:04:20.034Z,1.60
2023-04-25T12:06:48.840Z,1.10
2023-04-25T12:09:16.946Z,1.37
2023-04-25T12:11:47.817Z,1.40
2023-04-25T12:14:27.765Z,1.50
2023-04-25T12:16:56.774Z,1.10
2023-04-25T12:19:23.489Z,1.33
2023-04-25T12:21:58.104Z,1.30
2023-04-25T12:24:26.638Z,1.60
2023-04-25T12:27:00.750Z,1.57
2023-04-25T12:29:31.769Z,1.00
2023-04-25T12:32:04.784Z,1.40
2023-04-25T12:34:33.143Z,1.30
2023-04-25T12:36:59.953Z,1.37
2023-04-25T12:39:26.794Z,1.30
2023-04-25T12:41:54.909Z,1.30
2023-04-25T12:44:21.960Z,1.30
2023-04-25T12:46:49.116Z,1.60
2023-04-25T12:49:19.115Z,1.47
2023-04-25T12:51:46.393Z,1.33
2023-04-25T12:54:13.383Z,1.60
2023-04-25T12:56:40.164Z,1.70
2023-04-25T12:59:06.832Z,1.73
2023-04-25T13:01:35.665Z,1.70
2023-04-25T13:04:03.610Z,1.33
2023-04-25T13:06:33.450Z,1.70
2023-04-25T13:09:00.115Z,1.50
2023-04-25T13:11:26.929Z,1.57
2023-04-25T13:13:53.785Z,1.80
2023-04-25T13:16:21.942Z,1.80
2023-04-25T13:18:49.062Z,1.67
2023-04-25T13:21:15.727Z,1.67
2023-04-25T13:23:47.448Z,1.50
2023-04-25T13:26:14.119Z,1.60
2023-04-25T13:28:43.586Z,1.60
2023-04-25T13:31:11.594Z,1.43
2023-04-25T13:33:38.246Z,1.67
2023-04-25T13:36:05.005Z,1.70
2023-04-25T13:38:31.781Z,1.73
2023-04-25T13:40:58.537Z,2.20
2023-04-25T13:43:25.258Z,1.83
2023-04-25T13:45:52.451Z,1.80
2023-04-25T13:48:19.850Z,1.93
2023-04-25T13:50:46.893Z,2.00
2023-04-25T13:53:13.649Z,2.03
2023-04-25T13:55:40.550Z,2.33
2023-04-25T13:58:10.881Z,2.30
2023-04-25T14:00:44.121Z,2.07
2023-04-25T14:03:11.140Z,1.90
2023-04-25T14:05:39.121Z,2.00
2023-04-25T14:08:06.771Z,1.80
2023-04-25T14:10:33.563Z,2.20
2023-04-25T14:13:01.557Z,2.00
2023-04-25T14:15:29.834Z,2.10
2023-04-25T14:17:56.590Z,2.27
2023-04-25T14:20:24.838Z,2.27
2023-04-25T14:22:51.562Z,2.20
2023-04-25T14:25:18.243Z,2.23
2023-04-25T14:27:48.328Z,2.30
2023-04-25T14:30:15.047Z,2.53
2023-04-25T14:32:41.763Z,2.40
2023-04-25T14:35:08.660Z,2.40
2023-04-25T14:37:35.546Z,2.47
2023-04-25T14:40:02.314Z,2.40
2023-04-25T14:42:29.043Z,2.80
2023-04-25T14:44:55.783Z,2.40
2023-04-25T14:47:22.824Z,2.63
2023-04-25T14:49:54.914Z,3.00
2023-04-25T14:52:21.969Z,2.73
2023-04-25T14:54:48.735Z,2.97
2023-04-25T14:57:16.202Z,2.80
2023-04-25T14:59:42.960Z,2.37
2023-04-25T15:02:09.758Z,2.37
2023-04-25T15:04:36.576Z,2.43
2023-04-25T15:07:03.762Z,3.00
2023-04-25T15:09:30.800Z,2.77
2023-04-25T15:11:58.238Z,2.70
2023-04-25T15:14:24.989Z,2.80
2023-04-25T15:16:51.678Z,2.60
2023-04-25T15:19:18.684Z,2.70
2023-04-25T15:21:45.407Z,2.80
2023-04-25T15:24:12.176Z,2.73
2023-04-25T15:26:38.866Z,2.50
2023-04-25T15:29:06.838Z,2.90
2023-04-25T15:31:33.580Z,2.60
2023-04-25T15:34:01.123Z,2.80
2023-04-25T15:36:27.976Z,3.20
2023-04-25T15:38:54.640Z,3.03
2023-04-25T15:41:21.985Z,2.70
2023-04-25T15:43:49.110Z,2.73
2023-04-25T15:46:16.287Z,2.37
2023-04-25T15:48:43.142Z,2.90
2023-04-25T15:51:10.442Z,2.83
2023-04-25T15:53:37.281Z,2.60
2023-04-25T15:56:04.559Z,2.70
2023-04-25T15:58:31.268Z,2.40
2023-04-25T16:00:57.957Z,3.00
2023-04-25T16:03:24.756Z,2.43
2023-04-25T16:05:52.430Z,3.13
2023-04-25T16:08:19.125Z,2.10
2023-04-25T16:10:45.811Z,2.80
2023-04-25T16:13:12.553Z,2.50
2023-04-25T16:15:39.900Z,2.50
2023-04-25T16:18:06.719Z,2.83
2023-04-25T16:20:33.576Z,2.83
2023-04-25T16:23:01.194Z,2.53
2023-04-25T16:25:28.280Z,2.63
2023-04-25T16:27:54.969Z,2.23
2023-04-25T16:30:21.755Z,2.70
2023-04-25T16:32:48.516Z,2.20
2023-04-25T16:35:15.377Z,2.50
2023-04-25T16:37:42.037Z,2.33
2023-04-25T16:40:09.879Z,2.20
2023-04-25T16:42:36.696Z,2.33
2023-04-25T16:45:05.034Z,2.40
2023-04-25T16:47:32.200Z,2.30
2023-04-25T16:50:02.078Z,2.70
2023-04-25T16:52:28.816Z,2.40
2023-04-25T16:54:55.611Z,2.77
2023-04-25T16:57:22.293Z,2.43
2023-04-25T16:59:48.951Z,2.30
2023-04-25T17:02:15.859Z,2.43
2023-04-25T17:04:42.594Z,3.17
2023-04-25T17:07:09.428Z,7.67
2023-04-25T17:09:36.413Z,7.10
2023-04-25T17:12:03.850Z,2.90
2023-04-25T17:14:32.214Z,2.13
2023-04-25T17:16:59.083Z,2.03
2023-04-25T17:19:26.083Z,2.40
2023-04-25T17:21:52.945Z,2.13
2023-04-25T17:24:21.712Z,2.30
2023-04-25T17:26:48.980Z,2.10
2023-04-25T17:29:15.989Z,2.10
2023-04-25T17:31:42.729Z,2.20
2023-04-25T17:34:09.886Z,2.30
2023-04-25T17:36:36.793Z,2.10
2023-04-25T17:39:06.081Z,3.40
2023-04-25T17:41:32.797Z,3.43
2023-04-25T17:43:59.504Z,3.47
2023-04-25T17:46:27.434Z,2.07
2023-04-25T17:48:54.489Z,2.40
2023-04-25T17:51:21.492Z,2.50
2023-04-25T17:53:48.188Z,2.30
2023-04-25T17:56:25.789Z,2.23
2023-04-25T17:58:53.764Z,2.57
2023-04-25T18:01:20.727Z,2.33
2023-04-25T18:03:49.830Z,2.03
2023-04-25T18:06:17.076Z,2.27
2023-04-25T18:08:44.581Z,2.20
2023-04-25T18:11:12.037Z,2.50
2023-04-25T18:13:42.640Z,2.37
2023-04-25T18:16:10.011Z,2.63
2023-04-25T18:18:37.827Z,2.40
2023-04-25T18:21:07.356Z,2.33
2023-04-25T18:23:34.368Z,2.60
2023-04-25T18:26:02.022Z,2.27
2023-04-25T18:28:29.192Z,2.40
2023-04-25T18:30:56.508Z,2.47
2023-04-25T18:33:23.295Z,2.90
2023-04-25T18:35:58.699Z,2.97
2023-04-25T18:41:02.755Z,2.33
2023-04-25T18:43:43.454Z,2.57
2023-04-25T18:46:10.197Z,2.77
2023-04-25T18:48:37.464Z,2.33
2023-04-25T18:51:05.363Z,2.43
2023-04-25T18:53:32.277Z,2.33
2023-04-25T18:55:59.012Z,2.57
2023-04-25T18:58:26.207Z,2.70
2023-04-25T19:00:53.371Z,2.80
2023-04-25T19:03:21.095Z,2.87
2023-04-25T19:05:47.868Z,3.03
2023-04-25T19:08:14.502Z,2.90
2023-04-25T19:10:41.142Z,2.70
2023-04-25T19:13:08.509Z,2.60
2023-04-25T19:15:35.279Z,2.60
2023-04-25T19:18:02.639Z,2.57
2023-04-25T19:20:29.365Z,2.70
2023-04-25T19:22:56.019Z,2.70
2023-04-25T19:25:24.620Z,2.87
2023-04-25T19:27:51.397Z,2.87
2023-04-25T19:30:18.282Z,3.03
2023-04-25T19:32:45.840Z,2.90
2023-04-25T19:35:13.242Z,2.63
2023-04-25T19:37:45.688Z,2.73
2023-04-25T19:40:16.319Z,2.63
2023-04-25T19:42:43.370Z,3.17
2023-04-25T19:45:10.288Z,2.80
2023-04-25T19:47:39.861Z,3.10
2023-04-25T19:50:08.242Z,2.83
2023-04-25T19:52:35.791Z,3.40
2023-04-25T19:55:04.739Z,3.13
2023-04-25T19:57:33.143Z,2.97
2023-04-25T20:00:00.248Z,2.93
2023-04-25T20:02:27.041Z,2.80
2023-04-25T20:04:54.013Z,2.73
2023-04-25T20:07:22.631Z,3.13
2023-04-25T20:09:49.401Z,3.53
2023-04-25T20:12:17.853Z,2.63
2023-04-25T20:14:45.017Z,2.63
2023-04-25T20:17:11.925Z,2.83
2023-04-25T20:19:39.159Z,2.67
2023-04-25T20:22:06.267Z,2.90
2023-04-25T20:24:32.981Z,3.07
2023-04-25T20:26:59.680Z,2.87
2023-04-25T20:29:26.733Z,2.50
2023-04-25T20:31:54.259Z,2.70
2023-04-25T20:34:21.525Z,2.97
2023-04-25T20:36:48.722Z,2.50
2023-04-25T20:39:15.398Z,2.80
2023-04-25T20:41:42.555Z,3.00
2023-04-25T20:44:09.333Z,2.90
2023-04-25T20:46:36.214Z,3.13
2023-04-25T20:49:04.957Z,2.80
2023-04-25T20:51:32.411Z,2.57
2023-04-25T20:53:59.233Z,3.47
2023-04-25T20:56:26.385Z,3.20
2023-04-25T20:58:55.491Z,3.30
2023-04-25T21:01:22.590Z,3.30
2023-04-25T21:03:50.104Z,3.53
2023-04-25T21:06:17.415Z,3.30
2023-04-25T21:08:44.213Z,2.70
2023-04-25T21:11:11.234Z,2.97
2023-04-25T21:13:37.992Z,2.93
2023-04-25T21:16:05.476Z,2.87
2023-04-25T21:18:34.536Z,2.87
2023-04-25T21:21:05.139Z,3.07
2023-04-25T21:23:31.990Z,3.40
2023-04-25T21:25:58.780Z,2.90
2023-04-25T21:28:25.511Z,3.00
2023-04-25T21:30:52.411Z,2.73
2023-04-25T21:33:19.355Z,3.17
2023-04-25T21:35:46.165Z,2.93
2023-04-25T21:38:12.975Z,3.00
2023-04-25T21:40:39.832Z,2.93
2023-04-25T21:43:07.270Z,2.70
2023-04-25T21:45:34.814Z,2.83
2023-04-25T21:48:04.592Z,3.13
2023-04-25T21:50:31.546Z,3.73
2023-04-25T21:52:59.034Z,3.10
2023-04-25T21:55:26.464Z,2.97
2023-04-25T21:57:53.362Z,3.23
2023-04-25T22:00:20.887Z,2.87
2023-04-25T22:02:48.360Z,3.23
2023-04-25T22:05:15.316Z,2.63
2023-04-25T22:07:42.033Z,2.90
2023-04-25T22:10:08.975Z,3.23
2023-04-25T22:12:35.628Z,2.90
2023-04-25T22:15:03.393Z,3.40
2023-04-25T22:17:31.503Z,3.30
2023-04-25T22:19:59.442Z,3.30
2023-04-25T22:22:26.397Z,3.10
2023-04-25T22:24:53.585Z,3.33
2023-04-25T22:27:20.290Z,3.10
2023-04-25T22:29:47.011Z,3.40
2023-04-25T22:32:13.690Z,3.37
2023-04-25T22:34:42.065Z,2.90
2023-04-25T22:37:08.974Z,3.23
2023-04-25T22:39:35.737Z,3.10
2023-04-25T22:42:03.326Z,2.90
2023-04-25T22:44:29.985Z,3.37
2023-04-25T22:46:56.652Z,3.27
2023-04-25T22:49:24.152Z,3.40
2023-04-25T22:51:55.316Z,3.50
2023-04-25T22:54:22.604Z,3.10
2023-04-25T22:56:49.474Z,3.30
2023-04-25T22:59:16.230Z,3.60
2023-04-25T23:01:43.611Z,3.37
2023-04-25T23:04:10.573Z,3.50
2023-04-25T23:06:37.841Z,3.43
2023-04-25T23:09:05.859Z,3.43
2023-04-25T23:11:32.487Z,3.63
2023-04-25T23:13:59.114Z,3.80
2023-04-25T23:16:25.831Z,3.67
2023-04-25T23:18:52.807Z,3.80
2023-04-25T23:21:19.824Z,3.60
2023-04-25T23:23:46.518Z,3.70
2023-04-25T23:26:13.919Z,3.60
2023-04-25T23:28:41.992Z,4.00
2023-04-25T23:31:09.679Z,3.70
2023-04-25T23:33:36.476Z,3.47
2023-04-25T23:36:03.526Z,3.80
2023-04-25T23:38:30.298Z,4.03
2023-04-25T23:40:56.973Z,3.80
2023-04-25T23:43:23.620Z,4.50
2023-04-25T23:45:50.563Z,4.23
2023-04-25T23:48:17.358Z,3.83
2023-04-25T23:50:44.102Z,3.87
2023-04-25T23:53:10.862Z,4.47
2023-04-25T23:55:37.648Z,3.80
2023-04-25T23:58:04.303Z,4.03
